createdAt,value
2022-12-11T00:02:13.134Z,25.90
2022-12-11T00:06:19.131Z,26.27
2022-12-11T00:10:23.446Z,25.27
2022-12-11T00:14:27.291Z,26.65
2022-12-11T00:18:30.316Z,27.42
2022-12-11T00:22:33.238Z,28.38
2022-12-11T00:26:37.522Z,27.13
2022-12-11T00:30:42.671Z,28.83
2022-12-11T00:34:46.078Z,28.85
2022-12-11T00:38:49.798Z,26.58
2022-12-11T00:42:54.086Z,29.13
2022-12-11T00:46:56.914Z,27.70
2022-12-11T00:51:00.283Z,28.40
2022-12-11T00:55:03.189Z,28.70
2022-12-11T00:59:07.451Z,26.25
2022-12-11T01:03:11.026Z,29.27
2022-12-11T01:07:13.966Z,29.45
2022-12-11T01:11:18.208Z,29.83
2022-12-11T01:15:24.085Z,30.60
2022-12-11T01:19:26.954Z,30.10
2022-12-11T01:23:30.426Z,28.60
2022-12-11T01:27:33.400Z,29.70
2022-12-11T01:31:37.789Z,28.58
2022-12-11T01:35:41.194Z,32.50
2022-12-11T01:39:44.146Z,36.78
2022-12-11T01:44:03.001Z,34.25
2022-12-11T01:48:12.043Z,34.03
2022-12-11T01:52:20.650Z,36.22
2022-12-11T01:56:24.283Z,40.10
2022-12-11T02:00:27.167Z,47.88
2022-12-11T02:04:32.989Z,45.20
2022-12-11T02:08:39.024Z,41.28
2022-12-11T02:12:52.864Z,49.85
2022-12-11T02:17:01.125Z,53.15
2022-12-11T02:21:11.820Z,49.58
2022-12-11T02:25:21.817Z,47.78
2022-12-11T02:29:34.123Z,47.95
2022-12-11T02:33:42.674Z,52.10
2022-12-11T02:37:47.922Z,49.33
2022-12-11T02:41:52.301Z,53.35
2022-12-11T02:45:57.769Z,52.70
2022-12-11T02:50:05.945Z,59.15
2022-12-11T02:54:13.553Z,54.75
2022-12-11T02:58:19.928Z,53.78
2022-12-11T03:02:24.348Z,62.35
2022-12-11T03:06:32.829Z,57.80
2022-12-11T03:10:35.827Z,61.97
2022-12-11T03:14:40.346Z,57.60
2022-12-11T03:18:53.493Z,61.30
2022-12-11T03:23:03.952Z,61.53
2022-12-11T03:27:15.773Z,56.03
2022-12-11T03:31:23.639Z,69.80
2022-12-11T03:35:31.967Z,62.78
2022-12-11T03:39:39.345Z,63.95
2022-12-11T03:43:43.157Z,63.08
2022-12-11T03:47:47.484Z,66.65
2022-12-11T03:51:54.199Z,69.90
2022-12-11T03:55:59.945Z,73.07
2022-12-11T04:00:04.968Z,81.93
2022-12-11T04:04:14.936Z,70.47
2022-12-11T04:08:20.786Z,81.50
2022-12-11T04:12:23.760Z,70.90
2022-12-11T04:16:26.609Z,74.03
2022-12-11T04:20:47.520Z,77.82
2022-12-11T04:24:51.861Z,69.82
2022-12-11T04:28:55.062Z,84.72
2022-12-11T04:32:57.959Z,73.65
2022-12-11T04:37:00.904Z,81.45
2022-12-11T04:41:08.543Z,76.43
2022-12-11T04:45:12.905Z,84.60
2022-12-11T04:49:15.940Z,78.60
2022-12-11T04:53:18.819Z,74.45
2022-12-11T04:57:23.095Z,73.60
2022-12-11T05:01:25.941Z,74.38
2022-12-11T05:05:28.849Z,79.88
2022-12-11T05:09:31.721Z,69.03
2022-12-11T05:13:36.056Z,71.10
2022-12-11T05:17:39.177Z,68.97
2022-12-11T05:21:42.159Z,79.78
2022-12-11T05:25:52.205Z,66.15
2022-12-11T05:29:59.606Z,74.32
2022-12-11T05:34:03.372Z,67.93
2022-12-11T05:38:06.316Z,66.15
2022-12-11T05:42:09.329Z,62.25
2022-12-11T05:46:15.226Z,72.63
2022-12-11T05:50:18.592Z,68.40
2022-12-11T05:54:21.555Z,61.85
2022-12-11T05:58:24.465Z,66.70
2022-12-11T06:02:28.792Z,67.00
2022-12-11T06:06:31.893Z,72.60
2022-12-11T06:10:35.311Z,74.47
2022-12-11T06:14:38.199Z,67.68
2022-12-11T06:18:45.172Z,67.47
2022-12-11T06:22:48.315Z,71.38
2022-12-11T06:26:51.159Z,64.18
2022-12-11T06:30:54.023Z,71.78
2022-12-11T06:34:58.238Z,73.95
2022-12-11T06:39:01.089Z,72.32
2022-12-11T06:43:04.019Z,77.88
2022-12-11T06:47:07.037Z,68.35
2022-12-11T06:51:13.424Z,77.88
2022-12-11T06:55:16.539Z,69.57
2022-12-11T06:59:19.418Z,72.13
2022-12-11T07:03:22.360Z,72.13
2022-12-11T07:07:26.601Z,65.55
2022-12-11T07:11:32.342Z,73.22
2022-12-11T07:15:40.469Z,72.85
2022-12-11T07:19:43.509Z,71.93
2022-12-11T07:23:48.671Z,64.50
2022-12-11T07:27:51.552Z,70.00
2022-12-11T07:31:54.578Z,68.25
2022-12-11T07:35:57.617Z,64.78
2022-12-11T07:40:01.818Z,59.15
2022-12-11T07:44:05.260Z,60.20
2022-12-11T07:48:08.275Z,56.55
2022-12-11T07:52:11.149Z,51.25
2022-12-11T07:56:15.723Z,55.25
2022-12-11T08:00:19.206Z,53.25
2022-12-11T08:04:22.031Z,49.45
2022-12-11T08:08:24.942Z,49.22
2022-12-11T08:12:29.156Z,48.38
2022-12-11T08:16:32.808Z,48.05
2022-12-11T08:20:35.795Z,43.45
2022-12-11T08:24:38.737Z,49.55
2022-12-11T08:28:43.092Z,55.53
2022-12-11T08:32:46.629Z,57.00
2022-12-11T08:36:49.490Z,50.08
2022-12-11T08:40:52.388Z,53.40
2022-12-11T08:44:56.738Z,50.75
2022-12-11T08:49:00.438Z,58.22
2022-12-11T08:53:03.378Z,53.63
2022-12-11T08:57:06.347Z,59.30
2022-12-11T09:01:12.754Z,55.58
2022-12-11T09:05:15.756Z,58.95
2022-12-11T09:09:19.704Z,59.60
2022-12-11T09:13:22.551Z,59.03
2022-12-11T09:17:26.935Z,54.90
2022-12-11T09:21:31.489Z,52.30
2022-12-11T09:25:34.405Z,57.13
2022-12-11T09:29:37.301Z,60.78
2022-12-11T09:33:41.810Z,56.47
2022-12-11T09:37:44.694Z,58.78
2022-12-11T09:41:53.706Z,67.25
2022-12-11T09:45:56.938Z,61.78
2022-12-11T09:50:07.593Z,69.28
2022-12-11T09:54:13.828Z,68.13
2022-12-11T09:58:26.719Z,51.05
2022-12-11T10:02:42.257Z,51.28
2022-12-11T10:06:51.553Z,48.38
2022-12-11T10:11:01.941Z,49.97
2022-12-11T10:15:30.655Z,44.00
2022-12-11T10:19:34.309Z,47.65
2022-12-11T10:23:44.822Z,50.22
2022-12-11T10:27:48.014Z,50.40
2022-12-11T10:31:54.628Z,43.53
2022-12-11T10:35:59.439Z,39.67
2022-12-11T10:40:03.971Z,33.40
2022-12-11T10:44:17.447Z,31.92
2022-12-11T10:48:20.513Z,30.85
2022-12-11T10:52:26.631Z,30.27
2022-12-11T10:56:33.592Z,37.45
2022-12-11T11:00:38.363Z,33.35
2022-12-11T11:04:44.971Z,32.70
2022-12-11T11:08:50.332Z,30.80
2022-12-11T11:13:03.060Z,34.08
2022-12-11T11:17:06.672Z,31.48
2022-12-11T11:21:17.545Z,31.63
2022-12-11T11:25:22.763Z,32.90
2022-12-11T11:29:31.869Z,32.53
2022-12-11T11:33:37.686Z,29.48
2022-12-11T11:37:41.846Z,30.60
2022-12-11T11:41:51.550Z,30.67
2022-12-11T11:45:59.336Z,29.83
2022-12-11T11:50:09.309Z,30.45
2022-12-11T11:54:25.089Z,29.83
2022-12-11T11:58:36.069Z,31.40
2022-12-11T12:02:46.994Z,31.38
2022-12-11T12:07:08.658Z,33.58
2022-12-11T12:11:21.594Z,31.58
2022-12-11T12:15:34.844Z,33.63
2022-12-11T12:19:52.999Z,31.27
2022-12-11T12:24:14.605Z,31.73
2022-12-11T12:28:31.431Z,30.35
2022-12-11T12:32:44.812Z,31.02
2022-12-11T12:36:59.407Z,29.50
2022-12-11T12:41:14.207Z,30.33
2022-12-11T12:45:27.365Z,28.98
2022-12-11T12:49:40.195Z,26.23
2022-12-11T12:53:50.643Z,27.58
2022-12-11T12:57:57.457Z,31.20
2022-12-11T13:02:03.059Z,29.75
2022-12-11T13:06:10.346Z,28.65
2022-12-11T13:10:28.528Z,32.00
2022-12-11T13:14:33.632Z,29.85
2022-12-11T13:18:38.564Z,33.75
2022-12-11T13:22:50.942Z,32.28
2022-12-11T13:26:55.651Z,33.40
2022-12-11T13:31:08.512Z,32.00
2022-12-11T13:35:17.329Z,29.38
2022-12-11T13:39:24.903Z,29.58
2022-12-11T13:43:32.476Z,33.03
2022-12-11T13:47:37.477Z,31.92
2022-12-11T13:51:41.737Z,30.33
2022-12-11T13:55:45.330Z,29.05
2022-12-11T13:59:53.069Z,33.90
2022-12-11T14:03:58.572Z,35.78
2022-12-11T14:08:08.278Z,30.95
2022-12-11T14:12:18.447Z,31.67
2022-12-11T14:16:24.880Z,31.50
2022-12-11T14:20:30.118Z,29.60
2022-12-11T14:24:33.768Z,30.33
2022-12-11T14:28:39.360Z,30.98
2022-12-11T14:32:45.788Z,32.47
2022-12-11T14:36:50.290Z,29.77
2022-12-11T14:40:57.560Z,29.95
2022-12-11T14:45:08.016Z,32.38
2022-12-11T14:49:21.804Z,31.75
2022-12-11T14:53:27.401Z,34.60
2022-12-11T14:57:31.990Z,33.08
2022-12-11T15:01:36.914Z,31.60
2022-12-11T15:05:50.791Z,33.60
2022-12-11T15:09:54.205Z,31.92
2022-12-11T15:13:59.118Z,31.65
2022-12-11T15:18:06.011Z,29.92
2022-12-11T15:22:15.528Z,29.98
2022-12-11T15:26:35.463Z,32.38
2022-12-11T15:30:38.694Z,24.90
2022-12-11T15:34:45.396Z,22.85
2022-12-11T15:38:49.630Z,20.80
2022-12-11T15:42:54.789Z,21.58
2022-12-11T15:46:57.721Z,23.42
2022-12-11T15:51:00.685Z,20.60
2022-12-11T15:55:06.851Z,23.02
2022-12-11T15:59:11.869Z,28.02
2022-12-11T16:03:16.433Z,31.35
2022-12-11T16:07:21.264Z,33.90
2022-12-11T16:11:25.453Z,38.08
2022-12-11T16:15:28.616Z,37.92
2022-12-11T16:19:31.710Z,36.40
2022-12-11T16:23:34.711Z,34.35
2022-12-11T16:27:38.946Z,34.65
2022-12-11T16:31:41.744Z,39.95
2022-12-11T16:35:51.191Z,33.20
2022-12-11T16:39:56.515Z,33.00
2022-12-11T16:44:03.558Z,34.33
2022-12-11T16:48:07.143Z,32.80
2022-12-11T16:52:10.548Z,32.20
2022-12-11T16:56:13.699Z,30.88
2022-12-11T17:00:18.707Z,34.25
2022-12-11T17:04:21.813Z,34.50
2022-12-11T17:08:24.889Z,32.20
2022-12-11T17:12:28.842Z,34.38
2022-12-11T17:16:33.960Z,30.10
2022-12-11T17:20:41.705Z,28.45
2022-12-11T17:24:44.933Z,27.80
2022-12-11T17:28:50.108Z,27.83
2022-12-11T17:32:54.510Z,27.23
2022-12-11T17:36:57.789Z,29.35
2022-12-11T17:41:01.363Z,32.05
2022-12-11T17:45:10.270Z,32.38
2022-12-11T17:49:16.727Z,29.33
2022-12-11T17:53:21.371Z,29.45
2022-12-11T17:57:24.521Z,28.42
2022-12-11T18:01:27.466Z,27.25
2022-12-11T18:05:31.804Z,29.67
2022-12-11T18:09:35.722Z,28.52
2022-12-11T18:13:41.275Z,27.48
2022-12-11T18:17:47.064Z,24.95
2022-12-11T18:21:55.239Z,25.10
2022-12-11T18:25:58.342Z,27.55
2022-12-11T18:30:01.286Z,26.13
2022-12-11T18:34:06.009Z,24.38
2022-12-11T18:38:12.597Z,28.10
2022-12-11T18:46:39.374Z,21.77
2022-12-11T18:50:53.449Z,21.88
2022-12-11T18:54:58.530Z,20.05
2022-12-11T18:59:02.182Z,25.45
2022-12-11T19:03:09.378Z,23.13
2022-12-11T19:07:15.416Z,25.00
2022-12-11T19:11:23.060Z,26.63
2022-12-11T19:15:34.694Z,29.35
2022-12-11T19:19:37.929Z,28.73
2022-12-11T19:23:41.224Z,29.33
2022-12-11T19:27:49.992Z,28.95
2022-12-11T19:31:53.862Z,28.38
2022-12-11T19:36:02.628Z,29.20
2022-12-11T19:40:07.157Z,32.47
2022-12-11T19:44:11.736Z,28.65
2022-12-11T19:48:14.736Z,34.20
2022-12-11T19:52:17.689Z,33.13
2022-12-11T19:56:21.324Z,29.55
2022-12-11T20:00:25.640Z,26.70
2022-12-11T20:04:28.709Z,28.08
2022-12-11T20:08:46.981Z,34.83
2022-12-11T20:12:50.204Z,30.35
2022-12-11T20:17:13.782Z,27.73
2022-12-11T20:21:19.962Z,28.55
2022-12-11T20:25:23.915Z,27.13
2022-12-11T20:29:26.863Z,31.17
2022-12-11T20:33:31.111Z,29.70
2022-12-11T20:37:34.592Z,27.83
2022-12-11T20:41:37.444Z,29.88
2022-12-11T20:45:40.378Z,31.70
2022-12-11T20:49:44.700Z,27.13
2022-12-11T20:53:47.560Z,30.02
2022-12-11T20:57:50.416Z,30.77
2022-12-11T21:01:53.351Z,33.63
2022-12-11T21:05:57.530Z,29.30
2022-12-11T21:10:00.440Z,31.88
2022-12-11T21:14:03.686Z,30.67
2022-12-11T21:18:07.225Z,31.75
2022-12-11T21:22:11.416Z,30.63
2022-12-11T21:26:21.841Z,31.85
2022-12-11T21:30:24.816Z,31.40
2022-12-11T21:34:28.344Z,32.65
2022-12-11T21:38:32.691Z,32.03
2022-12-11T21:42:35.703Z,32.22
2022-12-11T21:46:38.743Z,31.20
2022-12-11T21:50:44.830Z,34.58
2022-12-11T21:54:49.288Z,34.85
2022-12-11T21:58:54.238Z,35.30
2022-12-11T22:02:57.109Z,29.95
2022-12-11T22:07:00.086Z,29.20
2022-12-11T22:11:05.011Z,35.10
2022-12-11T22:15:09.700Z,29.83
2022-12-11T22:19:13.776Z,31.48
2022-12-11T22:23:16.796Z,35.72
2022-12-11T22:27:23.852Z,32.55
2022-12-11T22:31:28.186Z,29.70
2022-12-11T22:35:31.161Z,32.95
2022-12-11T22:39:33.959Z,33.30
2022-12-11T22:43:38.451Z,36.28
2022-12-11T22:47:41.405Z,31.25
2022-12-11T22:51:44.772Z,34.15
2022-12-11T22:55:47.703Z,32.97
2022-12-11T22:59:52.152Z,35.17
2022-12-11T23:03:55.365Z,36.10
2022-12-11T23:07:59.399Z,33.25
2022-12-11T23:12:02.559Z,38.83
2022-12-11T23:16:07.093Z,34.03
2022-12-11T23:20:11.229Z,34.25
2022-12-11T23:24:14.106Z,39.15
2022-12-11T23:28:16.968Z,38.38
2022-12-11T23:32:21.445Z,39.42
2022-12-11T23:36:24.867Z,36.53
2022-12-11T23:40:27.725Z,37.78
2022-12-11T23:44:30.650Z,39.40
2022-12-11T23:48:34.870Z,35.20
2022-12-11T23:52:37.736Z,40.40
2022-12-11T23:56:40.652Z,38.83
